Time;durP1;ratioP1;P1;durP2;ratioP2;P2;SDS_P1;SDS_P2;PMS_P1;PMS_P2;Temp;Humidity;BMP_temperature;BMP_pressure;BME280_temperature;BME280_humidity;BME280_pressure;Samples;Min_cycle;Max_cycle;Signal;HPM_P1;HPM_P2
2022/10/22 00:01:20;;;;;;;20.40;8.90;;;;;;;10.23;88.60;100002.13;51484;1284;1016046;-73
2022/10/22 00:03:51;;;;;;;22.60;9.30;;;;;;;10.23;88.53;100006.91;51434;1285;1015749;-73
2022/10/22 00:06:23;;;;;;;23.80;10.50;;;;;;;10.21;88.23;100014.02;51629;1286;1016398;-73
2022/10/22 00:08:55;;;;;;;20.50;9.40;;;;;;;10.20;88.24;100010.20;51463;1312;1015854;-73
2022/10/22 00:11:27;;;;;;;23.70;9.90;;;;;;;10.18;87.98;100007.27;51688;1281;1016586;-73
2022/10/22 00:13:59;;;;;;;24.70;10.80;;;;;;;10.16;87.86;100008.96;51507;1281;1016208;-73
2022/10/22 00:16:31;;;;;;;25.70;10.60;;;;;;;10.14;87.59;100013.58;51506;1281;1016355;-73
2022/10/22 00:19:02;;;;;;;22.70;10.00;;;;;;;10.09;87.58;100007.68;51506;1309;1016435;-73
2022/10/22 00:21:33;;;;;;;23.00;10.30;;;;;;;10.05;87.37;100006.71;51741;1290;1016491;-73
2022/10/22 00:24:06;;;;;;;24.00;11.70;;;;;;;10.00;87.31;100012.45;51505;1288;1018250;-74
2022/10/22 00:26:39;;;;;;;24.20;11.20;;;;;;;9.95;87.22;100015.40;51589;1308;1016509;-74
2022/10/22 00:29:12;;;;;;;19.80;8.90;;;;;;;9.88;87.11;100019.48;51682;1280;1016496;-74
2022/10/22 00:31:48;;;;;;;21.80;9.10;;;;;;;9.83;87.26;100015.86;51529;1290;1016401;-73
2022/10/22 00:34:21;;;;;;;20.20;8.50;;;;;;;9.79;87.62;100011.44;51623;1306;1016257;-73
2022/10/22 00:36:53;;;;;;;22.00;9.40;;;;;;;9.79;87.48;100009.39;51672;1306;1016622;-73
2022/10/22 00:39:27;;;;;;;20.70;8.10;;;;;;;9.76;87.46;100006.49;51573;1306;1016387;-73
2022/10/22 00:41:59;;;;;;;20.40;8.40;;;;;;;9.74;87.68;100001.39;51676;1312;1016508;-73
2022/10/22 00:45:08;;;;;;;22.30;8.70;;;;;;;9.72;87.88;99988.79;51515;1285;1019033;-73
2022/10/22 00:47:44;;;;;;;23.60;9.30;;;;;;;9.70;87.97;99979.59;51372;1313;1016187;-73
2022/10/22 00:50:19;;;;;;;22.60;10.30;;;;;;;9.70;88.06;99975.63;51217;1312;1016317;-73
2022/10/22 00:52:51;;;;;;;26.70;12.20;;;;;;;9.71;88.13;99971.27;51353;1305;1018186;-73
2022/10/22 00:55:24;;;;;;;29.00;13.50;;;;;;;9.71;88.19;99967.69;51376;1297;1015990;-73
2022/10/22 00:57:58;;;;;;;36.30;16.60;;;;;;;9.69;88.39;99971.00;51267;1291;1016920;-73
2022/10/22 01:00:29;;;;;;;33.20;15.20;;;;;;;9.69;88.40;99969.33;51576;1314;1016539;-73
2022/10/22 01:03:01;;;;;;;27.30;11.10;;;;;;;9.68;88.34;99965.10;51437;1297;1016147;-73
2022/10/22 01:05:39;;;;;;;32.20;13.00;;;;;;;9.68;88.62;99960.39;51346;1296;1016982;-73
2022/10/22 01:08:17;;;;;;;26.40;11.80;;;;;;;9.69;88.65;99953.42;51276;1297;1016375;-73
2022/10/22 01:11:00;;;;;;;24.40;11.00;;;;;;;9.68;88.75;99946.49;51340;1313;1015678;-73
2022/10/22 01:13:46;;;;;;;27.40;10.90;;;;;;;9.67;88.77;99946.04;51324;1313;1016125;-74
2022/10/22 01:16:26;;;;;;;26.50;9.80;;;;;;;9.66;88.70;99947.79;51471;1302;1016028;-74
2022/10/22 01:19:06;;;;;;;25.30;9.70;;;;;;;9.67;88.90;99943.84;51513;1281;1015771;-73
2022/10/22 01:21:43;;;;;;;24.80;8.40;;;;;;;9.67;89.03;99946.29;51595;1312;1015856;-73
2022/10/22 01:24:28;;;;;;;21.40;9.10;;;;;;;9.67;88.95;99952.77;51448;1312;1016275;-73
2022/10/22 01:27:10;;;;;;;22.30;8.90;;;;;;;9.67;89.02;99956.48;51567;1312;1016445;-73
2022/10/22 01:29:47;;;;;;;25.30;9.10;;;;;;;9.67;88.91;99964.73;51401;1312;1016104;-73
2022/10/22 01:32:22;;;;;;;23.80;10.30;;;;;;;9.67;89.22;99983.17;51537;1306;1015808;-73
2022/10/22 01:34:57;;;;;;;20.30;7.90;;;;;;;9.68;89.11;99995.00;51684;1307;1015845;-73
2022/10/22 01:37:34;;;;;;;19.20;7.60;;;;;;;9.69;89.20;99991.98;51517;1312;1016487;-73
2022/10/22 01:40:10;;;;;;;20.40;7.30;;;;;;;9.71;89.17;99980.41;51537;1285;1019953;-73
2022/10/22 01:42:42;;;;;;;22.00;8.10;;;;;;;9.73;89.11;99966.85;51547;1283;1016208;-73
2022/10/22 01:45:16;;;;;;;22.00;7.60;;;;;;;9.73;89.40;99963.98;51636;1292;1016296;-73
2022/10/22 01:47:58;;;;;;;21.10;7.70;;;;;;;9.74;89.26;99954.20;51502;1307;1015619;-74
2022/10/22 01:50:52;;;;;;;16.30;7.20;;;;;;;9.75;89.53;99938.37;51679;1285;1016260;-73
2022/10/22 01:53:38;;;;;;;17.10;7.00;;;;;;;9.74;89.21;99941.08;51560;1283;1016380;-74
2022/10/22 01:56:26;;;;;;;20.10;8.00;;;;;;;9.75;89.53;99940.39;51589;1293;1016694;-73
2022/10/22 01:59:04;;;;;;;19.20;7.40;;;;;;;9.77;89.63;99942.50;51452;1282;1016209;-74
2022/10/22 02:01:42;;;;;;;17.50;7.20;;;;;;;9.76;89.38;99943.98;51427;1306;1016427;-73
2022/10/22 02:04:20;;;;;;;18.70;8.10;;;;;;;9.76;89.61;99945.23;51519;1283;1016499;-73
2022/10/22 02:06:55;;;;;;;18.10;7.20;;;;;;;9.78;89.57;99944.77;51521;1288;1016534;-73
2022/10/22 02:09:29;;;;;;;22.50;8.60;;;;;;;9.77;89.48;99947.73;51539;1277;1016325;-73
2022/10/22 02:12:05;;;;;;;22.30;8.50;;;;;;;9.78;89.41;99947.69;51538;1308;1016124;-73
2022/10/22 02:14:39;;;;;;;19.40;7.40;;;;;;;9.81;89.64;99940.95;51584;1307;1016431;-73
2022/10/22 02:17:16;;;;;;;19.50;6.70;;;;;;;9.83;89.53;99937.89;51492;1306;1016202;-73
2022/10/22 02:19:53;;;;;;;19.20;6.50;;;;;;;9.82;89.40;99937.73;51550;1283;1016046;-73
2022/10/22 02:22:26;;;;;;;17.10;6.90;;;;;;;9.81;89.21;99921.14;51564;1283;1015638;-73
2022/10/22 02:24:58;;;;;;;17.70;7.30;;;;;;;9.78;89.09;99916.06;51618;1285;1015926;-73
2022/10/22 02:27:37;;;;;;;20.40;6.70;;;;;;;9.78;89.12;99916.41;51459;1306;1015807;-73
2022/10/22 02:30:14;;;;;;;22.00;7.10;;;;;;;9.77;89.09;99921.98;51589;1281;1015749;-73
2022/10/22 02:32:54;;;;;;;20.00;7.30;;;;;;;9.75;89.05;99924.98;51518;1306;1016324;-73
2022/10/22 02:35:28;;;;;;;21.10;7.40;;;;;;;9.74;88.93;99923.77;51604;1291;1018404;-73
2022/10/22 02:38:01;;;;;;;16.00;6.20;;;;;;;9.72;88.87;99930.10;51535;1306;1015998;-73
2022/10/22 02:40:34;;;;;;;19.60;7.40;;;;;;;9.70;88.70;99932.73;51504;1285;1016739;-72
2022/10/22 02:43:07;;;;;;;19.30;7.20;;;;;;;9.67;88.66;99930.13;51488;1285;1016832;-73
2022/10/22 02:45:39;;;;;;;17.90;7.20;;;;;;;9.65;88.66;99936.32;51558;1281;1015998;-73
2022/10/22 02:48:10;;;;;;;22.70;7.90;;;;;;;9.61;88.58;99936.20;51570;1281;1016460;-73
2022/10/22 02:50:46;;;;;;;16.60;6.30;;;;;;;9.59;88.73;99937.73;51509;1306;1016028;-73
2022/10/22 02:53:18;;;;;;;16.90;6.50;;;;;;;9.57;88.51;99939.13;51469;1306;1015701;-73
2022/10/22 02:55:49;;;;;;;21.00;6.90;;;;;;;9.56;88.59;99947.55;51614;1285;1015627;-72
2022/10/22 02:58:20;;;;;;;20.20;7.30;;;;;;;9.54;88.64;99946.66;51437;1283;1016500;-73
2022/10/22 03:00:51;;;;;;;19.70;6.50;;;;;;;9.52;88.54;99940.09;51493;1306;1015872;-73
2022/10/22 03:03:23;;;;;;;17.20;6.00;;;;;;;9.50;88.66;99927.38;51547;1306;1016493;-73
2022/10/22 03:05:54;;;;;;;16.90;6.90;;;;;;;9.49;88.63;99931.35;51476;1306;1016483;-73
2022/10/22 03:08:26;;;;;;;15.40;6.50;;;;;;;9.48;88.56;99930.13;51644;1285;1015857;-73
2022/10/22 03:10:57;;;;;;;17.80;6.80;;;;;;;9.47;88.55;99930.77;51587;1307;1019117;-73
2022/10/22 03:13:28;;;;;;;16.70;6.50;;;;;;;9.44;88.54;99936.33;51484;1283;1016377;-73
2022/10/22 03:16:00;;;;;;;16.90;6.10;;;;;;;9.42;88.49;99933.91;51620;1306;1016434;-73
2022/10/22 03:18:31;;;;;;;17.00;7.20;;;;;;;9.40;88.40;99936.21;51503;1280;1016529;-73
2022/10/22 03:21:11;;;;;;;14.30;6.20;;;;;;;9.37;88.45;99939.39;51538;1306;1016280;-73
2022/10/22 03:23:44;;;;;;;17.10;6.90;;;;;;;9.32;88.31;99946.05;51649;1306;1016190;-73
2022/10/22 03:26:17;;;;;;;16.80;7.00;;;;;;;9.29;88.48;99942.84;51637;1306;1019978;-74
2022/10/22 03:28:48;;;;;;;20.00;8.30;;;;;;;9.28;88.69;99941.09;51578;1283;1015960;-73
2022/10/22 03:31:21;;;;;;;18.50;7.40;;;;;;;9.27;88.77;99934.68;51567;1281;1016467;-74
2022/10/22 03:33:52;;;;;;;19.90;8.30;;;;;;;9.29;88.96;99930.52;51643;1298;1016403;-73
2022/10/22 03:36:25;;;;;;;18.40;7.60;;;;;;;9.30;89.03;99931.11;51584;1299;1019035;-73
2022/10/22 03:38:58;;;;;;;24.90;8.40;;;;;;;9.31;89.13;99929.86;51561;1306;1018125;-73
2022/10/22 03:41:30;;;;;;;18.50;8.30;;;;;;;9.32;89.20;99932.61;51611;1281;1015958;-73
2022/10/22 03:44:04;;;;;;;18.20;7.20;;;;;;;9.32;89.15;99932.57;51468;1296;1017756;-73
2022/10/22 03:46:36;;;;;;;17.40;6.80;;;;;;;9.33;89.24;99937.59;51407;1285;1022858;-73
2022/10/22 03:49:08;;;;;;;18.40;6.90;;;;;;;9.33;89.29;99935.78;51498;1281;1016333;-73
2022/10/22 03:51:39;;;;;;;18.70;6.40;;;;;;;9.34;89.36;99937.65;51551;1285;1016315;-73
2022/10/22 03:54:10;;;;;;;16.10;7.00;;;;;;;9.33;89.35;99939.46;51389;1291;1017962;-73
2022/10/22 03:56:41;;;;;;;19.40;7.90;;;;;;;9.31;89.17;99938.77;51627;1306;1016254;-73
2022/10/22 03:59:13;;;;;;;20.70;7.60;;;;;;;9.29;89.35;99946.48;51685;1298;1016600;-73
2022/10/22 04:01:45;;;;;;;19.60;8.10;;;;;;;9.30;89.37;99953.08;51701;1281;1016263;-73
2022/10/22 04:04:16;;;;;;;22.90;9.30;;;;;;;9.30;89.43;99946.80;51516;1306;1016586;-73
2022/10/22 04:06:47;;;;;;;20.80;8.40;;;;;;;9.30;89.59;99944.68;51602;1306;1016535;-73
2022/10/22 04:09:19;;;;;;;29.00;8.80;;;;;;;9.29;89.64;99945.33;51493;1285;1020166;-72
2022/10/22 04:11:52;;;;;;;24.00;9.10;;;;;;;9.28;89.73;99949.51;51396;1306;1016440;-73
2022/10/22 04:14:24;;;;;;;24.20;9.20;;;;;;;9.27;89.76;99945.80;51570;1306;1015455;-73
2022/10/22 04:16:55;;;;;;;23.70;8.90;;;;;;;9.26;89.79;99945.78;51568;1299;1016097;-73
2022/10/22 04:19:27;;;;;;;26.20;9.00;;;;;;;9.26;89.82;99944.45;51610;1284;1015581;-73
2022/10/22 04:22:01;;;;;;;17.10;6.90;;;;;;;9.25;89.81;99943.67;51593;1283;1016247;-73
2022/10/22 04:24:33;;;;;;;20.20;7.80;;;;;;;9.25;89.82;99941.69;51682;1300;1015822;-73
2022/10/22 04:27:04;;;;;;;20.10;8.50;;;;;;;9.25;89.91;99932.98;51634;1306;1016991;-73
2022/10/22 04:29:36;;;;;;;18.70;7.50;;;;;;;9.24;89.97;99928.31;51614;1306;1019696;-73
2022/10/22 04:32:07;;;;;;;19.10;7.90;;;;;;;9.26;89.76;99915.69;51538;1291;1016224;-73
2022/10/22 04:34:39;;;;;;;18.30;7.20;;;;;;;9.28;90.15;99915.68;51550;1278;1016523;-73
2022/10/22 04:37:24;;;;;;;19.80;8.20;;;;;;;9.30;89.98;99915.41;51447;1306;1016896;-73
2022/10/22 04:39:55;;;;;;;23.20;7.50;;;;;;;9.31;89.84;99920.30;51528;1285;1016360;-73
2022/10/22 04:42:26;;;;;;;19.40;7.10;;;;;;;9.32;89.95;99921.05;51555;1285;1015668;-73
2022/10/22 04:44:58;;;;;;;20.90;8.10;;;;;;;9.32;89.99;99922.88;51493;1306;1015944;-73
2022/10/22 04:47:29;;;;;;;20.20;8.30;;;;;;;9.31;90.29;99926.96;51590;1292;1015935;-73
2022/10/22 04:50:00;;;;;;;21.00;8.10;;;;;;;9.30;90.13;99928.56;51584;1285;1016145;-73
2022/10/22 04:52:32;;;;;;;19.40;8.10;;;;;;;9.30;90.40;99932.38;51518;1306;1016273;-73
2022/10/22 04:55:06;;;;;;;18.30;7.30;;;;;;;9.30;90.65;99939.71;51681;1306;1016319;-73
2022/10/22 04:57:37;;;;;;;19.60;7.70;;;;;;;9.30;90.68;99946.14;51666;1283;1015680;-73
2022/10/22 05:00:11;;;;;;;19.90;8.40;;;;;;;9.33;90.69;99952.44;51545;1281;1016146;-74
2022/10/22 05:02:43;;;;;;;17.80;7.70;;;;;;;9.35;90.72;99957.95;51577;1306;1016040;-73
2022/10/22 05:05:14;;;;;;;18.60;7.90;;;;;;;9.39;91.01;99953.01;51677;1306;1018663;-73
2022/10/22 05:07:46;;;;;;;24.40;7.70;;;;;;;9.41;91.00;99950.47;51603;1281;1016283;-73
2022/10/22 05:10:18;;;;;;;20.30;7.70;;;;;;;9.42;90.92;99943.50;51648;1285;1016290;-73
2022/10/22 05:12:49;;;;;;;20.70;8.40;;;;;;;9.44;90.97;99939.52;51687;1290;1019534;-73
2022/10/22 05:15:21;;;;;;;19.30;8.70;;;;;;;9.45;90.87;99939.74;51683;1306;1016157;-73
2022/10/22 05:17:52;;;;;;;17.10;7.20;;;;;;;9.47;90.91;99939.52;51586;1301;1016070;-73
2022/10/22 05:20:24;;;;;;;19.00;7.80;;;;;;;9.48;90.83;99940.25;51624;1278;1016212;-73
2022/10/22 05:22:55;;;;;;;19.00;6.90;;;;;;;9.49;90.85;99946.81;51605;1285;1015894;-73
2022/10/22 05:25:27;;;;;;;16.00;6.50;;;;;;;9.49;90.76;99961.61;51529;1306;1016335;-73
2022/10/22 05:27:58;;;;;;;19.50;8.10;;;;;;;9.48;90.85;99965.08;51497;1284;1016332;-73
2022/10/22 05:30:29;;;;;;;19.30;7.50;;;;;;;9.48;90.91;99965.30;51565;1277;1016562;-73
2022/10/22 05:33:01;;;;;;;19.70;8.30;;;;;;;9.50;91.18;99968.30;51405;1306;1018380;-70
2022/10/22 05:35:32;;;;;;;19.80;7.70;;;;;;;9.51;91.14;99970.72;51351;1281;1016382;-70
2022/10/22 05:38:03;;;;;;;19.40;8.10;;;;;;;9.54;91.12;99965.15;51496;1281;1015773;-69
2022/10/22 05:40:35;;;;;;;22.60;8.60;;;;;;;9.57;91.31;99967.70;51349;1290;1015788;-70
2022/10/22 05:43:06;;;;;;;19.70;8.60;;;;;;;9.60;91.34;99972.41;51473;1283;1018121;-70
2022/10/22 05:45:40;;;;;;;23.30;9.60;;;;;;;9.61;91.30;99969.55;51461;1306;1016231;-70
2022/10/22 05:48:11;;;;;;;20.60;7.70;;;;;;;9.62;91.50;99983.13;51505;1284;1016111;-70
2022/10/22 05:50:45;;;;;;;20.30;7.70;;;;;;;9.57;91.33;100003.30;51348;1306;1015923;-70
2022/10/22 05:53:17;;;;;;;19.90;8.40;;;;;;;9.52;91.50;100013.50;51556;1306;1019488;-70
2022/10/22 05:55:50;;;;;;;20.10;8.00;;;;;;;9.49;91.77;100018.91;51498;1306;1016416;-70
2022/10/22 05:58:22;;;;;;;18.90;8.40;;;;;;;9.46;92.11;100027.00;51516;1291;1016154;-70
2022/10/22 06:00:54;;;;;;;20.00;8.50;;;;;;;9.44;92.30;100023.63;51462;1281;1016479;-70
2022/10/22 06:03:25;;;;;;;19.90;8.20;;;;;;;9.47;92.35;100022.77;51343;1283;1016580;-70
2022/10/22 06:05:56;;;;;;;19.30;8.40;;;;;;;9.52;92.55;100028.34;51540;1306;1015768;-70
2022/10/22 06:08:28;;;;;;;22.80;9.20;;;;;;;9.57;92.57;100034.11;51436;1306;1018485;-70
2022/10/22 06:10:59;;;;;;;25.80;10.10;;;;;;;9.61;92.83;100028.16;51489;1291;1016517;-70
2022/10/22 06:13:32;;;;;;;22.10;8.80;;;;;;;9.64;92.83;100026.01;51566;1306;1020098;-70
2022/10/22 06:16:04;;;;;;;22.30;9.50;;;;;;;9.67;92.75;100018.91;51453;1306;1016246;-70
2022/10/22 06:18:36;;;;;;;29.30;12.70;;;;;;;9.71;92.96;100013.09;51412;1306;1016183;-70
2022/10/22 06:21:09;;;;;;;35.80;18.30;;;;;;;9.75;93.05;100010.33;51423;1306;1016490;-70
2022/10/22 06:23:41;;;;;;;30.00;15.10;;;;;;;9.79;93.10;100008.73;51379;1306;1016031;-70
2022/10/22 06:26:14;;;;;;;30.20;13.20;;;;;;;9.85;93.25;100008.54;51552;1277;1016204;-70
2022/10/22 06:28:46;;;;;;;27.50;13.00;;;;;;;9.89;93.23;100004.36;51508;1277;1016188;-71
2022/10/22 06:31:18;;;;;;;24.70;11.30;;;;;;;9.93;93.01;99998.02;51467;1283;1016686;-72
2022/10/22 06:33:49;;;;;;;25.80;10.90;;;;;;;9.96;92.86;99995.86;51519;1306;1016379;-71
2022/10/22 06:36:23;;;;;;;27.10;12.70;;;;;;;9.99;92.93;100002.75;51375;1281;1018731;-71
2022/10/22 06:38:56;;;;;;;34.70;19.20;;;;;;;10.00;92.93;100001.21;51457;1306;1019907;-71
2022/10/22 06:41:27;;;;;;;35.40;19.30;;;;;;;10.02;93.18;100004.08;51527;1284;1015932;-71
2022/10/22 06:43:59;;;;;;;33.00;18.90;;;;;;;10.04;93.48;100011.20;51379;1280;1016585;-71
2022/10/22 06:46:31;;;;;;;34.60;19.80;;;;;;;10.06;93.50;100007.84;51436;1281;1016408;-71
2022/10/22 06:49:04;;;;;;;31.10;17.90;;;;;;;10.09;93.61;100012.00;51386;1284;1016424;-71
2022/10/22 06:51:36;;;;;;;32.10;16.40;;;;;;;10.12;93.63;100020.45;51654;1277;1016094;-69
2022/10/22 06:54:10;;;;;;;37.30;19.20;;;;;;;10.15;93.96;100024.92;51370;1306;1017298;-70
2022/10/22 06:56:42;;;;;;;36.70;18.10;;;;;;;10.18;94.10;100017.31;51488;1278;1016360;-70
2022/10/22 06:59:18;;;;;;;34.00;16.10;;;;;;;10.22;94.30;100012.77;51539;1283;1016299;-70
2022/10/22 07:01:50;;;;;;;31.70;17.10;;;;;;;10.26;94.28;100016.58;51379;1285;1016361;-70
2022/10/22 07:04:21;;;;;;;34.60;17.80;;;;;;;10.29;94.12;100023.49;51338;1283;1017265;-70
2022/10/22 07:06:54;;;;;;;34.20;17.10;;;;;;;10.30;94.03;100021.27;51570;1291;1016418;-70
2022/10/22 07:09:26;;;;;;;34.20;18.40;;;;;;;10.33;94.29;100028.67;51416;1306;1018498;-69
2022/10/22 07:11:57;;;;;;;35.90;17.40;;;;;;;10.36;94.38;100022.33;51434;1306;1016076;-70
2022/10/22 07:14:29;;;;;;;47.80;20.40;;;;;;;10.37;94.16;100020.56;51497;1306;1019151;-70
2022/10/22 07:17:01;;;;;;;34.00;15.00;;;;;;;10.38;94.06;100022.13;51376;1278;1016208;-69
2022/10/22 07:19:32;;;;;;;41.80;17.40;;;;;;;10.39;93.93;100025.27;51495;1281;1016121;-71
2022/10/22 07:22:03;;;;;;;30.10;13.70;;;;;;;10.43;94.04;100020.38;51839;1283;1016288;-69
2022/10/22 07:24:35;;;;;;;31.90;13.70;;;;;;;10.46;94.12;100020.70;51492;1285;1016289;-70
2022/10/22 07:27:06;;;;;;;33.10;14.00;;;;;;;10.47;94.29;100026.21;51403;1291;1016228;-70
2022/10/22 07:29:37;;;;;;;34.30;15.10;;;;;;;10.51;94.29;100034.24;51518;1306;1016526;-70
2022/10/22 07:32:12;;;;;;;29.80;14.40;;;;;;;10.54;94.16;100029.58;51555;1284;1016322;-71
2022/10/22 07:34:43;;;;;;;34.80;16.00;;;;;;;10.60;94.64;100031.73;51591;1283;1016536;-70
2022/10/22 07:37:15;;;;;;;43.70;18.80;;;;;;;10.64;94.87;100038.15;51594;1283;1015775;-71
2022/10/22 07:39:46;;;;;;;52.80;26.00;;;;;;;10.67;94.88;100039.00;51416;1280;1016016;-71
2022/10/22 07:42:18;;;;;;;55.00;29.40;;;;;;;10.69;94.83;100042.55;51486;1286;1016401;-71
2022/10/22 07:44:49;;;;;;;49.90;26.80;;;;;;;10.72;94.92;100042.23;51571;1282;1015741;-71
2022/10/22 07:47:21;;;;;;;37.50;20.60;;;;;;;10.76;94.86;100037.46;51490;1276;1016671;-71
2022/10/22 07:49:59;;;;;;;45.40;22.50;;;;;;;10.81;94.91;100039.77;51500;1306;1016064;-71
2022/10/22 07:52:31;;;;;;;38.70;18.90;;;;;;;10.85;95.22;100050.16;51570;1276;1016266;-71
2022/10/22 07:55:04;;;;;;;28.70;15.10;;;;;;;10.88;95.11;100048.52;51651;1278;1016367;-71
2022/10/22 07:57:36;;;;;;;32.80;16.60;;;;;;;10.90;95.09;100047.67;51416;1300;1018191;-71
2022/10/22 08:00:09;;;;;;;31.90;16.00;;;;;;;10.92;95.35;100053.48;51350;1298;1016274;-71
2022/10/22 08:02:40;;;;;;;31.80;17.10;;;;;;;10.96;95.37;100049.04;51520;1288;1015944;-71
2022/10/22 08:05:13;;;;;;;33.50;17.90;;;;;;;11.01;95.55;100045.49;51498;1306;1018306;-71
2022/10/22 08:07:45;;;;;;;36.00;17.10;;;;;;;11.05;95.78;100045.20;51665;1291;1016453;-71
2022/10/22 08:10:16;;;;;;;32.30;17.50;;;;;;;11.08;95.85;100044.17;51559;1285;1016267;-71
2022/10/22 08:12:49;;;;;;;30.00;15.40;;;;;;;11.13;95.88;100044.45;51453;1285;1015869;-71
2022/10/22 08:15:22;;;;;;;30.40;15.90;;;;;;;11.19;96.09;100047.46;51531;1291;1016545;-71
2022/10/22 08:17:53;;;;;;;26.30;12.90;;;;;;;11.24;96.26;100044.14;51469;1291;1016307;-70
2022/10/22 08:20:25;;;;;;;29.70;14.50;;;;;;;11.29;96.26;100041.52;51407;1306;1018792;-71
2022/10/22 08:22:56;;;;;;;29.10;14.20;;;;;;;11.35;96.20;100046.15;51472;1291;1016150;-71
2022/10/22 08:25:28;;;;;;;30.30;14.00;;;;;;;11.40;96.34;100045.41;51365;1306;1016211;-72
2022/10/22 08:27:59;;;;;;;26.20;11.50;;;;;;;11.46;96.26;100045.73;51393;1306;1016335;-72
2022/10/22 08:30:32;;;;;;;26.40;10.80;;;;;;;11.51;96.37;100044.33;51493;1285;1015570;-72
2022/10/22 08:33:04;;;;;;;24.90;11.20;;;;;;;11.55;96.39;100049.25;51424;1285;1016498;-72
2022/10/22 08:35:35;;;;;;;23.50;11.50;;;;;;;11.61;96.42;100046.52;51448;1306;1020479;-72
2022/10/22 08:38:07;;;;;;;28.30;11.70;;;;;;;11.66;96.34;100049.39;51482;1291;1018718;-72
2022/10/22 08:40:42;;;;;;;29.60;12.90;;;;;;;11.72;96.63;100056.73;51466;1306;1016467;-72
2022/10/22 08:44:05;;;;;;;28.80;11.70;;;;;;;11.78;96.51;100066.68;51420;1306;1016059;-73
2022/10/22 08:47:00;;;;;;;27.10;12.20;;;;;;;11.85;96.50;100077.75;51216;1291;1016548;-72
2022/10/22 08:49:37;;;;;;;26.10;12.80;;;;;;;11.91;96.47;100086.15;51216;1304;1015934;-69
2022/10/22 08:52:13;;;;;;;34.90;13.40;;;;;;;11.98;96.64;100092.39;51258;1289;1015860;-71
2022/10/22 08:54:52;;;;;;;29.30;12.20;;;;;;;12.05;96.61;100092.66;51213;1312;1016157;-71
2022/10/22 08:57:40;;;;;;;27.00;11.20;;;;;;;12.12;96.71;100088.65;51292;1312;1016430;-70
2022/10/22 09:00:18;;;;;;;26.90;12.90;;;;;;;12.17;96.61;100088.15;51347;1289;1015981;-71
2022/10/22 09:03:02;;;;;;;25.70;11.80;;;;;;;12.23;96.61;100079.81;51309;1297;1016971;-71
2022/10/22 09:05:46;;;;;;;26.20;11.50;;;;;;;12.29;96.78;100070.15;51327;1281;1016128;-71
2022/10/22 09:08:21;;;;;;;22.90;10.50;;;;;;;12.35;96.98;100069.20;51273;1289;1015751;-71
2022/10/22 09:10:58;;;;;;;26.00;12.20;;;;;;;12.40;96.70;100072.70;51186;1289;1015591;-71
2022/10/22 09:13:30;;;;;;;28.00;12.80;;;;;;;12.47;96.83;100072.45;51382;1312;1015739;-71
2022/10/22 09:16:13;;;;;;;27.40;12.20;;;;;;;12.52;96.74;100072.20;51335;1289;1016477;-71
2022/10/22 09:18:54;;;;;;;26.80;11.50;;;;;;;12.57;96.73;100066.69;51357;1306;1016268;-71
2022/10/22 09:21:37;;;;;;;30.60;12.10;;;;;;;12.62;96.72;100070.50;51536;1306;1016216;-71
2022/10/22 09:24:14;;;;;;;33.70;13.20;;;;;;;12.68;97.16;100073.17;51469;1284;1015748;-71
2022/10/22 09:26:45;;;;;;;26.90;11.90;;;;;;;12.73;97.12;100076.48;51431;1306;1018362;-71
2022/10/22 09:29:24;;;;;;;25.60;12.50;;;;;;;12.77;97.01;100080.44;51601;1283;1015962;-71
2022/10/22 09:31:56;;;;;;;25.70;12.60;;;;;;;12.82;96.98;100082.82;51673;1285;1016243;-72
2022/10/22 09:34:28;;;;;;;26.10;10.90;;;;;;;12.85;96.96;100087.01;51430;1306;1016526;-71
2022/10/22 09:37:02;;;;;;;31.70;11.90;;;;;;;12.89;96.86;100092.70;51460;1306;1015772;-71
2022/10/22 09:39:38;;;;;;;26.60;12.30;;;;;;;12.91;96.97;100094.55;51411;1285;1015588;-71
2022/10/22 09:42:14;;;;;;;29.50;15.00;;;;;;;12.94;96.98;100096.92;51427;1301;1016237;-71
2022/10/22 09:44:55;;;;;;;28.90;13.50;;;;;;;12.96;96.70;100096.72;51632;1306;1016680;-71
2022/10/22 09:47:34;;;;;;;34.50;13.20;;;;;;;12.97;96.56;100089.45;51442;1283;1016503;-72
2022/10/22 09:50:20;;;;;;;28.30;12.90;;;;;;;12.99;96.64;100088.29;51423;1306;1016071;-71
2022/10/22 09:53:06;;;;;;;29.90;14.20;;;;;;;13.01;96.87;100086.11;51397;1285;1016113;-72
2022/10/22 09:55:41;;;;;;;26.90;12.90;;;;;;;13.06;96.90;100085.05;51598;1285;1017506;-71
2022/10/22 09:58:15;;;;;;;28.70;12.30;;;;;;;13.11;96.91;100081.86;51601;1285;1017984;-72
2022/10/22 10:00:50;;;;;;;29.30;12.70;;;;;;;13.14;96.94;100081.48;51534;1285;1016334;-72
2022/10/22 10:03:25;;;;;;;27.10;13.20;;;;;;;13.19;97.18;100084.21;51371;1278;1016288;-72
2022/10/22 10:06:01;;;;;;;26.10;12.70;;;;;;;13.23;97.06;100082.50;51448;1306;1018146;-72
2022/10/22 10:08:33;;;;;;;28.30;12.90;;;;;;;13.25;96.97;100083.80;51418;1291;1016170;-71
2022/10/22 10:11:11;;;;;;;32.30;15.50;;;;;;;13.27;96.80;100085.23;51381;1285;1016453;-72
2022/10/22 10:13:53;;;;;;;31.00;16.10;;;;;;;13.30;97.09;100084.64;51399;1285;1018144;-72
2022/10/22 10:16:43;;;;;;;27.30;13.00;;;;;;;13.34;97.15;100094.23;51390;1306;1016132;-72
2022/10/22 10:19:35;;;;;;;27.40;11.70;;;;;;;13.35;96.99;100096.39;51441;1302;1018750;-71
2022/10/22 10:22:21;;;;;;;26.60;11.40;;;;;;;13.37;96.95;100099.50;51583;1277;1015921;-72
2022/10/22 10:25:12;;;;;;;28.40;12.90;;;;;;;13.38;96.88;100094.61;51416;1283;1016391;-72
2022/10/22 10:27:50;;;;;;;27.30;12.70;;;;;;;13.40;96.90;100087.19;51638;1283;1016298;-72
2022/10/22 10:30:24;;;;;;;31.00;15.20;;;;;;;13.43;97.04;100084.98;51439;1306;1016288;-72
2022/10/22 10:33:12;;;;;;;26.50;12.30;;;;;;;13.44;96.90;100077.72;51563;1283;1015273;-72
2022/10/22 10:35:53;;;;;;;29.40;13.00;;;;;;;13.48;96.88;100076.83;51375;1306;1016307;-72
2022/10/22 10:38:39;;;;;;;31.10;12.30;;;;;;;13.51;96.86;100086.17;51497;1278;1015718;-72
2022/10/22 10:41:22;;;;;;;28.90;12.90;;;;;;;13.53;96.89;100093.16;51462;1284;1016445;-73
2022/10/22 10:44:13;;;;;;;25.80;12.30;;;;;;;13.54;96.96;100088.32;51406;1284;1015870;-73
2022/10/22 10:46:54;;;;;;;26.40;13.00;;;;;;;13.53;96.64;100094.95;51564;1284;1016382;-73
2022/10/22 10:49:29;;;;;;;24.40;11.00;;;;;;;13.52;96.69;100100.20;51371;1281;1019124;-73
2022/10/22 10:52:12;;;;;;;27.00;10.00;;;;;;;13.47;96.76;100096.20;51579;1285;1016457;-71
2022/10/22 10:55:00;;;;;;;28.70;12.80;;;;;;;13.43;97.12;100086.73;51417;1283;1016146;-70
2022/10/22 10:57:47;;;;;;;29.80;12.60;;;;;;;13.42;97.23;100092.90;51376;1283;1016176;-69
2022/10/22 11:00:21;;;;;;;31.60;14.50;;;;;;;13.40;97.36;100099.98;51412;1306;1016480;-70
2022/10/22 11:03:29;;;;;;;31.30;15.50;;;;;;;13.38;97.16;100098.09;51573;1278;1015583;-65
2022/10/22 11:06:04;;;;;;;42.50;21.10;;;;;;;13.36;97.24;100101.55;51144;1306;1020827;-64
2022/10/22 11:08:42;;;;;;;38.80;17.80;;;;;;;13.36;97.29;100095.98;51220;1305;1016512;-63
2022/10/22 11:11:20;;;;;;;35.90;16.40;;;;;;;13.35;97.28;100098.73;51218;1300;1016356;-64
2022/10/22 11:13:56;;;;;;;39.00;16.60;;;;;;;13.34;97.50;100099.13;51186;1285;1016454;-64
2022/10/22 11:16:36;;;;;;;40.80;17.90;;;;;;;13.32;97.63;100099.64;51217;1283;1020068;-65
2022/10/22 11:19:16;;;;;;;41.00;20.80;;;;;;;13.33;97.73;100097.39;51377;1283;1016418;-67
2022/10/22 11:21:54;;;;;;;44.70;19.50;;;;;;;13.33;97.46;100090.14;51154;1306;1016513;-66
2022/10/22 11:24:33;;;;;;;36.60;16.10;;;;;;;13.36;97.81;100086.90;51241;1306;1016439;-67
2022/10/22 11:27:10;;;;;;;39.40;19.10;;;;;;;13.38;97.66;100081.36;53229;1299;1015566;-67
2022/10/22 11:29:48;;;;;;;35.60;17.50;;;;;;;13.43;97.96;100075.16;51240;1306;1016454;-67
2022/10/22 11:32:25;;;;;;;31.30;14.00;;;;;;;13.47;98.11;100071.16;51210;1283;1016511;-67
2022/10/22 11:35:02;;;;;;;32.50;13.90;;;;;;;13.50;98.09;100069.04;52532;1284;1056744;-67
2022/10/22 11:37:37;;;;;;;32.70;14.70;;;;;;;13.54;98.17;100076.86;51457;1306;1016208;-67
2022/10/22 11:40:15;;;;;;;28.30;12.70;;;;;;;13.58;98.45;100079.20;51546;1285;1015922;-67